createdAt,value
2022-10-17T00:00:15.995Z,100308.22
2022-10-17T00:01:19.766Z,100308.47
2022-10-17T00:02:23.871Z,100311.97
2022-10-17T00:03:27.639Z,100315.63
2022-10-17T00:04:31.498Z,100318.28
2022-10-17T00:05:41.316Z,100310.38
2022-10-17T00:06:45.036Z,100318.47
2022-10-17T00:07:48.707Z,100321.16
2022-10-17T00:08:52.322Z,100320.31
2022-10-17T00:09:55.946Z,100313.13
2022-10-17T00:11:07.929Z,100317.75
2022-10-17T00:12:12.439Z,100318.81
2022-10-17T00:13:16.086Z,100310.88
2022-10-17T00:14:19.753Z,100318.16
2022-10-17T00:15:23.979Z,100316.44
2022-10-17T00:16:37.187Z,100315.81
2022-10-17T00:17:42.063Z,100315.91
2022-10-17T00:18:45.761Z,100319.53
2022-10-17T00:19:49.469Z,100316.09
2022-10-17T00:20:53.583Z,100314.69
2022-10-17T00:21:57.211Z,100313.28
2022-10-17T00:23:00.988Z,100323.88
2022-10-17T00:24:05.052Z,100331.78
2022-10-17T00:25:09.567Z,100329.97
2022-10-17T00:26:13.410Z,100330.94
2022-10-17T00:27:17.183Z,100334.56
2022-10-17T00:28:20.815Z,100329.28
2022-10-17T00:29:24.458Z,100328.38
2022-10-17T00:30:28.088Z,100333.72
2022-10-17T00:31:31.711Z,100331.97
2022-10-17T00:32:35.365Z,100331.97
2022-10-17T00:33:39.453Z,100331.97
2022-10-17T00:34:46.687Z,100334.56
2022-10-17T00:35:50.300Z,100334.44
2022-10-17T00:36:54.020Z,100340.75
2022-10-17T00:37:57.715Z,100339.91
2022-10-17T00:39:01.400Z,100325.69
2022-10-17T00:40:07.711Z,100330.16
2022-10-17T00:41:16.826Z,100331.97
2022-10-17T00:42:41.078Z,100339.13
2022-10-17T00:44:01.666Z,100333.91
2022-10-17T00:45:32.165Z,100332.28
2022-10-17T00:46:39.716Z,100342.97
2022-10-17T00:47:48.708Z,100339.53
2022-10-17T00:48:55.612Z,100339.53
2022-10-17T00:50:05.361Z,100339.66
2022-10-17T00:51:09.595Z,100335.38
2022-10-17T00:52:20.740Z,100327.38
2022-10-17T00:53:24.608Z,100336.22
2022-10-17T00:54:35.073Z,100331.84
2022-10-17T00:56:05.535Z,100332.81
2022-10-17T00:57:09.953Z,100329.28
2022-10-17T00:58:13.694Z,100327.47
2022-10-17T00:59:22.032Z,100326.69
2022-10-17T01:00:25.814Z,100331.09
2022-10-17T01:01:29.816Z,100331.09
2022-10-17T01:02:33.588Z,100329.47
2022-10-17T01:03:37.491Z,100326.81
2022-10-17T01:04:45.250Z,100323.28
2022-10-17T01:05:48.869Z,100324.34
2022-10-17T01:06:52.529Z,100320.81
2022-10-17T01:07:56.700Z,100327.88
2022-10-17T01:09:00.418Z,100326.16
2022-10-17T01:10:06.575Z,100325.31
2022-10-17T01:11:57.685Z,100327.13
2022-10-17T01:13:23.708Z,100326.56
2022-10-17T01:14:49.275Z,100332.75
2022-10-17T01:16:34.370Z,100318.97
2022-10-17T01:17:59.711Z,100330.38
2022-10-17T01:19:43.992Z,100333.06
2022-10-17T01:21:25.296Z,100329.63
2022-10-17T01:23:11.242Z,100326.34
2022-10-17T01:24:58.945Z,100323.75
2022-10-17T01:26:37.771Z,100325.66
2022-10-17T01:27:49.709Z,100323.94
2022-10-17T01:29:59.500Z,100331.09
2022-10-17T01:31:22.415Z,100330.16
2022-10-17T01:32:44.279Z,100333.88
2022-10-17T01:34:21.426Z,100331.22
2022-10-17T01:35:44.237Z,100337.41
2022-10-17T01:37:14.857Z,100334.75
2022-10-17T01:38:32.613Z,100333.78
2022-10-17T01:40:00.306Z,100338.25
2022-10-17T01:41:17.575Z,100325.66
2022-10-17T01:42:42.773Z,100336.34
2022-10-17T01:44:03.567Z,100330.91
2022-10-17T01:45:28.001Z,100333.44
2022-10-17T01:46:45.271Z,100338.03
2022-10-17T01:47:53.536Z,100332.72
2022-10-17T01:49:02.894Z,100326.41
2022-10-17T01:50:18.964Z,100334.34
2022-10-17T01:51:33.159Z,100328.13
2022-10-17T01:52:55.941Z,100332.53
2022-10-17T01:54:47.804Z,100327.19
2022-10-17T01:57:21.558Z,100323.56
2022-10-17T01:58:46.680Z,100329.94
2022-10-17T01:59:55.263Z,100332.53
2022-10-17T09:01:17.117Z,100532.44
2022-10-17T09:03:34.432Z,100532.22
2022-10-17T09:06:10.803Z,100528.47
2022-10-17T09:29:17.942Z,100526.97
2022-10-17T09:31:55.229Z,100527.81
2022-10-17T10:53:57.445Z,100508.22
2022-10-17T10:55:55.847Z,100509.22
2022-10-17T10:57:04.303Z,100515.19
2022-10-17T10:58:57.873Z,100501.19
2022-10-17T11:00:38.106Z,100505.44
2022-10-17T11:02:14.377Z,100505.13
2022-10-17T11:04:16.673Z,100501.56
2022-10-17T11:06:03.336Z,100505.28
2022-10-17T11:07:47.792Z,100500.19
2022-10-17T11:09:33.785Z,100496.47
2022-10-17T11:11:39.324Z,100496.31
2022-10-17T11:13:04.443Z,100503.25
2022-10-17T11:14:18.652Z,100493.44
2022-10-17T11:15:44.869Z,100490.88
2022-10-17T11:17:23.485Z,100493.06
2022-10-17T11:18:50.882Z,100489.03
2022-10-17T11:20:08.729Z,100489.56
2022-10-17T11:21:57.131Z,100493.81
2022-10-17T11:23:21.537Z,100490.75
2022-10-17T11:24:35.909Z,100491.78
2022-10-17T11:25:42.157Z,100489.75
2022-10-17T11:26:59.160Z,100488.38
2022-10-17T11:28:18.065Z,100482.97
2022-10-17T11:29:29.620Z,100485.34
2022-10-17T11:30:56.954Z,100485.88
2022-10-17T11:32:26.767Z,100483.00
2022-10-17T11:34:00.284Z,100483.00
2022-10-17T11:35:36.809Z,100473.38
2022-10-17T11:36:47.078Z,100482.75
2022-10-17T11:38:19.601Z,100479.88
2022-10-17T11:39:56.654Z,100477.66
2022-10-17T11:41:00.739Z,100481.09
2022-10-17T11:42:19.001Z,100479.91
2022-10-17T11:43:46.528Z,100480.41
2022-10-17T11:44:57.753Z,100475.69
2022-10-17T11:46:27.373Z,100474.50
2022-10-17T11:47:36.301Z,100473.31
2022-10-17T11:49:03.778Z,100470.59
2022-10-17T11:52:44.469Z,100477.03
2022-10-17T11:54:15.068Z,100473.13
2022-10-17T11:55:32.889Z,100472.81
2022-10-17T11:57:18.575Z,100467.91
2022-10-17T11:59:07.929Z,100460.47
2022-10-17T12:00:54.462Z,100466.75
2022-10-17T12:02:17.469Z,100463.84
2022-10-17T12:04:13.221Z,100471.66
2022-10-17T12:05:37.575Z,100464.38
2022-10-17T12:07:20.924Z,100465.91
2022-10-17T12:08:56.869Z,100460.16
2022-10-17T12:10:23.606Z,100468.47
2022-10-17T12:11:58.114Z,100459.66
2022-10-17T12:13:30.158Z,100461.00
2022-10-17T12:14:50.629Z,100462.56
2022-10-17T12:15:58.891Z,100461.72
2022-10-17T12:17:05.235Z,100455.94
2022-10-17T12:18:17.790Z,100450.06
2022-10-17T12:19:25.897Z,100449.53
2022-10-17T12:20:38.024Z,100443.63
2022-10-17T12:22:12.988Z,100450.91
2022-10-17T12:23:16.459Z,100445.50
2022-10-17T12:24:30.780Z,100444.31
2022-10-17T12:26:48.716Z,100448.91
2022-10-17T12:28:03.367Z,100448.03
2022-10-17T12:29:30.219Z,100438.56
2022-10-17T12:30:36.644Z,100432.63
2022-10-17T12:31:40.944Z,100437.56
2022-10-17T12:33:32.929Z,100434.84
2022-10-17T12:34:38.425Z,100430.44
2022-10-17T12:35:42.314Z,100440.63
2022-10-17T12:36:46.366Z,100434.66
2022-10-17T12:37:49.907Z,100428.41
2022-10-17T12:39:03.380Z,100429.94
2022-10-17T12:40:36.027Z,100427.22
2022-10-17T12:41:40.151Z,100432.97
2022-10-17T12:42:50.566Z,100422.13
2022-10-17T12:43:55.688Z,100432.66
2022-10-17T12:45:23.785Z,100425.84
2022-10-17T12:46:51.242Z,100426.03
2022-10-17T12:47:54.803Z,100426.56
2022-10-17T12:49:05.118Z,100430.63
2022-10-17T12:51:34.057Z,100433.00
2022-10-17T12:52:32.832Z,100422.13
2022-10-17T12:54:24.230Z,100429.94
2022-10-17T12:55:29.659Z,100428.91
2022-10-17T12:56:42.062Z,100428.75
2022-10-17T12:58:05.206Z,100421.13
2022-10-17T12:59:29.655Z,100430.13
2022-10-17T13:01:22.540Z,100425.56
2022-10-17T13:02:28.589Z,100426.22
2022-10-17T13:03:42.896Z,100426.75
2022-10-17T13:04:49.594Z,100423.50
2022-10-17T13:05:59.090Z,100428.78
2022-10-17T13:07:21.591Z,100424.69
2022-10-17T13:08:39.327Z,100425.53
2022-10-17T13:09:45.554Z,100423.31
2022-10-17T13:10:52.819Z,100424.50
2022-10-17T13:12:02.093Z,100422.31
2022-10-17T13:13:22.479Z,100422.31
2022-10-17T13:14:28.688Z,100426.03
2022-10-17T13:15:36.448Z,100422.47
2022-10-17T13:16:59.205Z,100422.97
2022-10-17T13:18:03.197Z,100428.06
2022-10-17T13:19:20.519Z,100426.88
2022-10-17T13:20:31.343Z,100421.63
2022-10-17T13:21:35.737Z,100420.91
2022-10-17T13:22:46.185Z,100422.78
2022-10-17T13:23:55.168Z,100427.19
2022-10-17T13:25:20.135Z,100426.03
2022-10-17T13:26:28.547Z,100417.88
2022-10-17T13:27:35.942Z,100423.13
2022-10-17T13:28:40.406Z,100423.50
2022-10-17T13:29:47.927Z,100422.97
2022-10-17T13:30:53.661Z,100421.09
2022-10-17T13:32:04.570Z,100417.34
2022-10-17T13:33:45.137Z,100419.03
2022-10-17T13:35:22.057Z,100424.16
2022-10-17T13:36:30.608Z,100416.34
2022-10-17T13:37:36.125Z,100417.00
2022-10-17T13:38:41.957Z,100416.16
2022-10-17T13:40:00.261Z,100411.38
2022-10-17T13:41:34.979Z,100412.41
2022-10-17T13:42:41.759Z,100418.22
2022-10-17T13:43:45.614Z,100423.97
2022-10-17T13:44:56.080Z,100415.66
2022-10-17T13:46:32.390Z,100418.06
2022-10-17T13:47:54.043Z,100421.94
2022-10-17T13:49:09.095Z,100425.69
2022-10-17T13:50:44.954Z,100418.56
2022-10-17T13:51:57.993Z,100417.34
2022-10-17T13:53:19.897Z,100420.59
2022-10-17T13:54:42.818Z,100417.03
2022-10-17T13:56:35.493Z,100412.44
2022-10-17T14:00:27.471Z,100413.63
2022-10-17T14:01:42.409Z,100423.66
2022-10-17T14:03:14.421Z,100416.66
2022-10-17T14:04:26.824Z,100415.81
2022-10-17T14:05:34.152Z,100410.22
2022-10-17T14:06:52.259Z,100420.41
2022-10-17T14:08:11.934Z,100418.34
2022-10-17T14:09:31.064Z,100410.22
2022-10-17T14:10:39.654Z,100407.16
2022-10-17T14:12:06.476Z,100410.06
2022-10-17T14:13:36.082Z,100408.50
2022-10-17T14:15:09.759Z,100409.38
2022-10-17T14:16:16.251Z,100410.75
2022-10-17T14:17:31.010Z,100411.22
2022-10-17T14:18:45.993Z,100410.06
2022-10-17T14:21:40.920Z,100413.44
2022-10-17T14:23:04.509Z,100407.50
2022-10-17T14:24:38.988Z,100414.97
2022-10-17T14:25:45.924Z,100411.22
2022-10-17T14:26:58.665Z,100407.00
2022-10-17T14:28:17.355Z,100421.25
2022-10-17T14:29:29.086Z,100414.50
2022-10-17T14:32:11.022Z,100410.03
2022-10-17T14:33:36.342Z,100412.63
2022-10-17T14:34:43.121Z,100409.06
2022-10-17T14:36:02.087Z,100411.91
2022-10-17T14:37:47.628Z,100405.63
2022-10-17T14:38:53.153Z,100410.22
2022-10-17T14:40:23.689Z,100416.69
2022-10-17T14:41:44.147Z,100408.72
2022-10-17T14:42:51.148Z,100410.59
2022-10-17T14:45:41.329Z,100408.91
2022-10-17T14:46:53.038Z,100403.78
2022-10-17T14:48:55.342Z,100408.72
2022-10-17T14:50:37.874Z,100403.63
2022-10-17T14:52:17.664Z,100394.16
2022-10-17T14:53:49.771Z,100402.13
2022-10-17T14:55:25.569Z,100397.69
2022-10-17T14:56:51.332Z,100400.59
2022-10-17T14:57:59.547Z,100398.22
2022-10-17T14:59:13.797Z,100402.63
2022-10-17T15:00:26.549Z,100401.09
2022-10-17T15:01:35.763Z,100406.72
2022-10-17T15:04:11.009Z,100407.19
2022-10-17T15:05:17.202Z,100398.38
2022-10-17T15:06:32.647Z,100396.81
2022-10-17T15:07:40.598Z,100399.72
2022-10-17T15:08:45.600Z,100399.91
2022-10-17T15:10:04.101Z,100396.69
2022-10-17T15:11:30.672Z,100404.13
2022-10-17T15:12:58.863Z,100401.09
2022-10-17T15:14:19.677Z,100393.44
2022-10-17T15:15:25.900Z,100400.75
2022-10-17T15:16:43.454Z,100404.66
2022-10-17T15:17:50.877Z,100396.84
2022-10-17T15:19:28.380Z,100406.19
2022-10-17T15:20:38.921Z,100400.22
2022-10-17T15:21:47.205Z,100402.25
2022-10-17T15:22:51.882Z,100406.31
2022-10-17T15:23:58.589Z,100396.66
2022-10-17T15:25:06.904Z,100401.41
2022-10-17T15:26:33.081Z,100403.59
2022-10-17T15:27:40.808Z,100407.69
2022-10-17T15:28:49.813Z,100408.00
2022-10-17T15:29:53.599Z,100403.78
2022-10-17T15:31:06.894Z,100405.94
2022-10-17T15:32:14.933Z,100411.72
2022-10-17T15:33:18.410Z,100412.22
2022-10-17T15:34:22.251Z,100407.94
2022-10-17T15:35:31.047Z,100405.59
2022-10-17T15:36:41.280Z,100410.66
2022-10-17T15:37:46.981Z,100403.84
2022-10-17T15:38:53.716Z,100408.75
2022-10-17T15:39:57.487Z,100405.50
2022-10-17T15:41:01.340Z,100406.88
2022-10-17T15:42:12.461Z,100406.50
2022-10-17T15:43:19.756Z,100411.56
2022-10-17T15:44:23.625Z,100411.38
2022-10-17T15:45:27.678Z,100418.31
2022-10-17T15:46:36.502Z,100412.34
2022-10-17T15:47:51.916Z,100412.88
2022-10-17T15:49:08.763Z,100416.22
2022-10-17T15:50:46.368Z,100419.75
2022-10-17T15:52:01.372Z,100417.09
2022-10-17T15:53:46.852Z,100424.16
2022-10-17T15:54:50.753Z,100422.13
2022-10-17T15:55:54.524Z,100418.34
2022-10-17T15:57:03.764Z,100424.06
2022-10-17T15:58:15.429Z,100429.09
2022-10-17T15:59:32.414Z,100423.63
2022-10-17T16:00:37.155Z,100422.56
2022-10-17T16:01:50.890Z,100426.63
2022-10-17T16:02:56.368Z,100422.66
2022-10-17T16:05:38.785Z,100432.59
2022-10-17T16:06:50.897Z,100428.47
2022-10-17T16:07:58.160Z,100436.72
2022-10-17T16:09:02.771Z,100431.66
2022-10-17T16:10:07.405Z,100428.22
2022-10-17T16:11:43.127Z,100426.13
2022-10-17T16:12:49.739Z,100431.00
2022-10-17T16:13:57.290Z,100425.06
2022-10-17T16:15:04.847Z,100427.22
2022-10-17T16:16:16.875Z,100430.38
2022-10-17T16:17:21.834Z,100426.47
2022-10-17T16:18:27.470Z,100424.22
2022-10-17T16:19:35.546Z,100434.47
2022-10-17T16:20:40.532Z,100426.00
2022-10-17T16:21:45.373Z,100428.97
2022-10-17T16:22:51.049Z,100428.44
2022-10-17T16:23:56.385Z,100424.19
2022-10-17T16:25:07.968Z,100421.78
2022-10-17T16:26:16.160Z,100429.22
2022-10-17T16:27:19.782Z,100425.78
2022-10-17T16:28:23.479Z,100431.34
2022-10-17T16:29:27.140Z,100431.69
2022-10-17T16:30:33.277Z,100426.41
2022-10-17T16:31:42.453Z,100429.41
2022-10-17T16:32:46.983Z,100426.72
2022-10-17T16:33:54.545Z,100431.44
2022-10-17T16:35:00.129Z,100427.19
2022-10-17T16:36:05.166Z,100427.31
2022-10-17T16:37:08.581Z,100428.28
2022-10-17T16:38:12.552Z,100428.44
2022-10-17T16:39:16.392Z,100431.31
2022-10-17T16:40:21.416Z,100437.72
2022-10-17T16:41:45.641Z,100431.59
2022-10-17T16:43:02.744Z,100439.84
2022-10-17T16:44:16.995Z,100435.59
2022-10-17T16:45:24.693Z,100436.75
2022-10-17T16:46:43.114Z,100430.78
2022-10-17T16:47:50.825Z,100432.94
2022-10-17T16:48:56.180Z,100427.00
2022-10-17T16:49:59.865Z,100432.56
2022-10-17T16:51:04.236Z,100424.59
2022-10-17T16:52:07.869Z,100430.97
2022-10-17T16:53:11.796Z,100425.88
2022-10-17T16:54:15.776Z,100425.19
2022-10-17T16:55:19.963Z,100427.31
2022-10-17T16:56:26.088Z,100430.19
2022-10-17T16:57:30.322Z,100420.53
2022-10-17T16:58:34.313Z,100426.94
2022-10-17T16:59:40.845Z,100418.97
2022-10-17T17:00:44.642Z,100421.81
2022-10-17T17:01:48.702Z,100418.41
2022-10-17T17:03:00.219Z,100420.28
2022-10-17T17:04:11.989Z,100426.81
2022-10-17T17:05:21.232Z,100420.00
2022-10-17T17:06:31.062Z,100424.56
2022-10-17T17:07:37.688Z,100421.16
2022-10-17T17:08:44.629Z,100422.28
2022-10-17T17:09:49.203Z,100418.91
2022-10-17T17:10:54.957Z,100410.94
2022-10-17T17:11:58.883Z,100415.94
2022-10-17T17:13:03.611Z,100415.94
2022-10-17T17:14:15.517Z,100414.50
2022-10-17T17:15:21.893Z,100419.38
2022-10-17T17:16:29.540Z,100421.38
2022-10-17T17:17:49.642Z,100419.78
2022-10-17T17:19:05.759Z,100418.38
2022-10-17T17:20:11.196Z,100422.06
2022-10-17T17:21:16.250Z,100418.94
2022-10-17T17:22:26.105Z,100422.63
2022-10-17T17:23:33.785Z,100419.38
2022-10-17T17:24:37.901Z,100417.81
2022-10-17T17:25:41.455Z,100420.78
2022-10-17T17:26:45.412Z,100416.53
2022-10-17T17:27:48.985Z,100422.38
2022-10-17T17:28:58.114Z,100424.50
2022-10-17T17:30:03.300Z,100419.69
2022-10-17T17:31:13.630Z,100424.53
2022-10-17T17:32:17.468Z,100425.81
2022-10-17T17:33:23.450Z,100425.25
2022-10-17T17:34:37.463Z,100419.41
2022-10-17T17:35:41.466Z,100420.69
2022-10-17T17:36:46.425Z,100423.69
2022-10-17T17:37:50.208Z,100432.19
2022-10-17T17:39:00.442Z,100425.66
2022-10-17T17:40:06.217Z,100426.09
2022-10-17T17:41:17.028Z,100422.97
2022-10-17T17:42:25.310Z,100429.59
2022-10-17T17:43:30.101Z,100426.47
2022-10-17T17:44:34.553Z,100422.19
2022-10-17T17:45:38.182Z,100426.19
2022-10-17T17:46:43.720Z,100425.59
2022-10-17T17:47:47.846Z,100420.75
2022-10-17T17:48:53.970Z,100427.28
2022-10-17T17:49:57.527Z,100433.94
2022-10-17T17:51:10.854Z,100427.13
2022-10-17T17:52:18.165Z,100426.97
2022-10-17T17:53:22.921Z,100431.75
2022-10-17T17:54:39.999Z,100428.66
2022-10-17T17:55:46.822Z,100425.34
2022-10-17T17:57:12.828Z,100428.59
2022-10-17T17:58:16.690Z,100425.34
2022-10-17T17:59:20.350Z,100418.34
2022-10-17T18:00:27.494Z,100424.03
2022-10-17T18:01:38.230Z,100420.63
2022-10-17T18:02:44.463Z,100425.28
2022-10-17T18:03:51.418Z,100429.09
2022-10-17T18:04:54.901Z,100418.47
2022-10-17T18:05:58.895Z,100420.31
2022-10-17T18:07:03.284Z,100433.06
2022-10-17T18:08:07.496Z,100428.53
2022-10-17T18:09:13.857Z,100425.94
2022-10-17T18:10:21.704Z,100436.88
2022-10-17T18:11:27.549Z,100433.31
2022-10-17T18:12:34.608Z,100426.22
2022-10-17T18:13:39.910Z,100424.63
2022-10-17T18:14:43.965Z,100423.91
2022-10-17T18:15:48.911Z,100425.88
2022-10-17T18:16:53.938Z,100422.19
2022-10-17T18:17:58.490Z,100430.28
2022-10-17T18:19:24.204Z,100431.28
2022-10-17T18:20:28.749Z,100424.31
2022-10-17T18:21:32.790Z,100426.16
2022-10-17T18:22:36.797Z,100428.97
2022-10-17T18:23:42.598Z,100429.09
2022-10-17T18:24:46.133Z,100440.16
2022-10-17T18:26:01.247Z,100430.63
2022-10-17T18:27:05.548Z,100431.91
2022-10-17T18:28:10.715Z,100433.13
2022-10-17T18:29:17.684Z,100433.41
2022-10-17T18:30:25.935Z,100430.97
2022-10-17T18:31:36.890Z,100428.56
2022-10-17T18:32:43.352Z,100428.69
2022-10-17T18:33:47.164Z,100436.88
2022-10-17T18:34:51.052Z,100426.38
2022-10-17T18:35:59.864Z,100430.22
2022-10-17T18:37:06.216Z,100433.88
2022-10-17T18:38:13.226Z,100430.47
2022-10-17T18:39:17.263Z,100423.50
2022-10-17T18:40:22.088Z,100433.41
2022-10-17T18:41:28.345Z,100423.88
2022-10-17T18:42:32.332Z,100423.19
2022-10-17T18:43:42.489Z,100430.41
2022-10-17T18:48:01.900Z,100437.09
2022-10-17T18:49:06.550Z,100440.16
2022-10-17T18:50:11.011Z,100437.88
2022-10-17T18:51:17.304Z,100447.88
2022-10-17T18:52:21.198Z,100439.22
2022-10-17T18:53:24.827Z,100442.16
2022-10-17T18:54:33.493Z,100440.56
2022-10-17T18:55:40.243Z,100442.63
2022-10-17T18:56:53.736Z,100437.41
2022-10-17T18:57:57.646Z,100435.81
2022-10-17T18:59:02.404Z,100428.88
2022-10-17T19:00:14.432Z,100431.66
2022-10-17T19:01:30.778Z,100432.78
2022-10-17T19:02:38.061Z,100428.63
2022-10-17T19:03:45.615Z,100429.75
2022-10-17T19:06:10.643Z,100436.63
2022-10-17T19:07:17.048Z,100432.22
2022-10-17T19:08:21.839Z,100432.38
2022-10-17T19:09:30.202Z,100437.88
2022-10-17T19:10:38.391Z,100446.03
2022-10-17T19:11:44.593Z,100438.09
2022-10-17T19:12:59.166Z,100437.25
2022-10-17T19:14:11.449Z,100434.69
2022-10-17T19:15:16.625Z,100437.63
2022-10-17T19:19:56.988Z,100436.81
2022-10-17T19:21:29.450Z,100433.50
2022-10-17T19:24:44.159Z,100433.28
2022-10-17T19:28:38.303Z,100436.22
2022-10-17T19:29:58.603Z,100439.16
2022-10-17T19:31:46.860Z,100434.88
2022-10-17T19:33:09.539Z,100434.53
2022-10-17T19:34:17.977Z,100430.03
2022-10-17T19:35:30.044Z,100440.22
2022-10-17T19:36:41.428Z,100441.22
2022-10-17T19:37:58.645Z,100437.91
2022-10-17T19:39:06.932Z,100441.56
2022-10-17T19:40:15.350Z,100438.28
2022-10-17T19:41:31.540Z,100439.28
2022-10-17T19:43:00.103Z,100438.66
2022-10-17T19:44:28.485Z,100444.13
2022-10-17T19:45:37.176Z,100439.84
2022-10-17T19:46:53.071Z,100439.97
2022-10-17T19:48:09.049Z,100450.84
2022-10-17T19:49:18.181Z,100453.78
2022-10-17T19:50:27.882Z,100454.00
2022-10-17T19:51:33.277Z,100457.53
2022-10-17T19:52:38.879Z,100456.81
2022-10-17T19:53:58.545Z,100463.16
2022-10-17T19:55:05.819Z,100456.19
2022-10-17T19:56:11.690Z,100460.81
2022-10-17T19:57:29.653Z,100458.25
2022-10-17T19:58:54.368Z,100454.84
2022-10-17T20:00:00.666Z,100455.06
2022-10-17T20:03:08.478Z,100458.59
2022-10-17T20:04:16.191Z,100452.50
2022-10-17T20:05:25.944Z,100454.31
2022-10-17T20:06:37.470Z,100452.72
2022-10-17T20:07:41.640Z,100449.19
2022-10-17T20:08:45.803Z,100452.00
2022-10-17T20:09:58.373Z,100452.13
2022-10-17T20:11:16.153Z,100453.31
2022-10-17T20:12:20.408Z,100457.72
2022-10-17T20:13:25.393Z,100453.31
2022-10-17T20:14:29.221Z,100454.31
2022-10-17T20:15:32.962Z,100450.13
2022-10-17T20:16:36.978Z,100449.28
2022-10-17T20:17:40.994Z,100449.28
2022-10-17T20:18:45.070Z,100447.56
2022-10-17T20:19:55.199Z,100451.34
2022-10-17T20:21:09.379Z,100451.34
2022-10-17T20:22:13.222Z,100455.75
2022-10-17T20:23:19.950Z,100450.63
2022-10-17T20:24:23.516Z,100453.41
2022-10-17T20:25:27.519Z,100453.41
2022-10-17T20:26:39.564Z,100455.22
2022-10-17T20:27:44.852Z,100452.78
2022-10-17T20:28:49.635Z,100459.22
2022-10-17T20:29:53.463Z,100451.31
2022-10-17T20:30:57.571Z,100457.13
2022-10-17T20:32:01.106Z,100458.94
2022-10-17T20:33:04.700Z,100459.81
2022-10-17T20:34:15.008Z,100457.25
2022-10-17T20:35:25.835Z,100457.38
2022-10-17T20:36:37.792Z,100459.06
2022-10-17T20:37:44.354Z,100455.66
2022-10-17T20:38:48.425Z,100461.88
2022-10-17T20:40:10.702Z,100460.19
2022-10-17T20:41:16.486Z,100453.09
2022-10-17T20:42:22.308Z,100451.38
2022-10-17T20:43:27.155Z,100449.88
2022-10-17T20:44:32.350Z,100445.59
2022-10-17T20:45:50.957Z,100450.84
2022-10-17T20:47:02.171Z,100452.69
2022-10-17T20:48:10.605Z,100446.56
2022-10-17T20:49:18.547Z,100442.16
2022-10-17T20:50:23.330Z,100448.50
2022-10-17T20:51:28.231Z,100444.34
2022-10-17T20:52:32.644Z,100448.88
2022-10-17T20:53:38.172Z,100447.97
2022-10-17T20:54:42.002Z,100448.22
2022-10-17T20:55:45.869Z,100447.50
2022-10-17T20:56:50.181Z,100446.84
2022-10-17T20:57:55.929Z,100446.13
2022-10-17T20:59:11.350Z,100453.19
2022-10-17T21:00:16.462Z,100445.25
2022-10-17T21:01:21.491Z,100445.38
2022-10-17T21:02:26.387Z,100446.97
2022-10-17T21:03:42.300Z,100445.47
2022-10-17T21:04:50.778Z,100442.91
2022-10-17T21:05:54.533Z,100445.72
2022-10-17T21:06:59.821Z,100450.22
2022-10-17T21:08:03.924Z,100446.81
2022-10-17T21:09:10.081Z,100441.44
2022-10-17T21:10:35.490Z,100444.22
2022-10-17T21:11:41.715Z,100439.22
2022-10-17T21:12:54.021Z,100436.66
2022-10-17T21:14:04.991Z,100443.72
2022-10-17T21:15:09.423Z,100437.63
2022-10-17T21:16:22.694Z,100435.91
2022-10-17T21:17:29.465Z,100436.97
2022-10-17T21:18:33.547Z,100434.19
2022-10-17T21:19:37.787Z,100431.50
2022-10-17T21:20:41.842Z,100428.94
2022-10-17T21:21:46.929Z,100435.16
2022-10-17T21:22:51.997Z,100434.44
2022-10-17T21:24:01.061Z,100431.09
2022-10-17T21:25:06.298Z,100433.91
2022-10-17T21:26:13.247Z,100430.50
2022-10-17T21:27:19.755Z,100423.44
2022-10-17T21:28:32.048Z,100425.25
2022-10-17T21:29:36.199Z,100423.44
2022-10-17T21:30:40.338Z,100427.16
2022-10-17T21:31:45.979Z,100427.06
2022-10-17T21:32:55.439Z,100427.41
2022-10-17T21:34:05.653Z,100420.34
2022-10-17T21:35:12.461Z,100426.75
2022-10-17T21:36:18.976Z,100423.47
2022-10-17T21:37:26.041Z,100424.56
2022-10-17T21:38:30.057Z,100421.97
2022-10-17T21:39:33.647Z,100420.38
2022-10-17T21:40:37.238Z,100424.88
2022-10-17T21:41:42.059Z,100425.00
2022-10-17T21:42:45.728Z,100417.16
2022-10-17T21:43:55.275Z,100420.81
2022-10-17T21:44:59.106Z,100421.03
2022-10-17T21:46:10.512Z,100421.91
2022-10-17T21:47:15.623Z,100419.53
2022-10-17T21:48:19.823Z,100431.34
2022-10-17T21:49:27.473Z,100433.28
2022-10-17T21:50:32.755Z,100427.16
2022-10-17T21:51:39.554Z,100429.22
2022-10-17T21:52:43.851Z,100425.78
2022-10-17T21:53:48.221Z,100420.41
2022-10-17T21:54:52.555Z,100423.97
2022-10-17T21:56:01.719Z,100422.34
2022-10-17T21:57:06.519Z,100415.28
2022-10-17T21:58:10.291Z,100415.53
2022-10-17T21:59:14.565Z,100416.50
2022-10-17T22:00:21.763Z,100421.72
2022-10-17T22:01:38.846Z,100415.72
2022-10-17T22:02:43.225Z,100417.63
2022-10-17T22:03:51.079Z,100415.94
2022-10-17T22:04:54.712Z,100418.59
2022-10-17T22:06:07.097Z,100416.03
2022-10-17T22:07:26.545Z,100416.13
2022-10-17T22:08:31.799Z,100410.03
2022-10-17T22:09:35.992Z,100411.97
2022-10-17T22:10:41.630Z,100407.47
2022-10-17T22:11:52.291Z,100412.94
2022-10-17T22:12:55.812Z,100416.47
2022-10-17T22:14:07.162Z,100419.16
2022-10-17T22:15:11.188Z,100405.88
2022-10-17T22:16:19.156Z,100408.75
2022-10-17T22:17:22.839Z,100407.91
2022-10-17T22:18:26.888Z,100397.31
2022-10-17T22:19:30.697Z,100399.25
2022-10-17T22:20:35.612Z,100398.59
2022-10-17T22:21:39.878Z,100401.38
2022-10-17T22:22:44.190Z,100403.09
2022-10-17T22:23:56.723Z,100394.34
2022-10-17T22:25:00.222Z,100410.59
2022-10-17T22:26:04.725Z,100398.19
2022-10-17T22:27:10.389Z,100407.16
2022-10-17T22:28:14.077Z,100405.78
2022-10-17T22:29:18.024Z,100406.97
2022-10-17T22:30:21.761Z,100394.66
2022-10-17T22:31:26.259Z,100400.34
2022-10-17T22:32:30.208Z,100397.00
2022-10-17T22:33:39.412Z,100394.31
2022-10-17T22:34:44.482Z,100406.72
2022-10-17T22:35:50.622Z,100396.16
2022-10-17T22:36:54.221Z,100390.91
2022-10-17T22:37:58.476Z,100395.28
2022-10-17T22:39:03.789Z,100398.81
2022-10-17T22:40:08.812Z,100397.97
2022-10-17T22:41:12.382Z,100393.47
2022-10-17T22:42:18.604Z,100390.91
2022-10-17T22:43:23.105Z,100389.22
2022-10-17T22:44:30.058Z,100398.19
2022-10-17T22:45:34.233Z,100395.72
2022-10-17T22:46:38.371Z,100391.22
2022-10-17T22:47:42.470Z,100389.63
2022-10-17T22:48:46.546Z,100391.34
2022-10-17T22:49:51.052Z,100388.53
2022-10-17T22:51:00.824Z,100381.50
2022-10-17T22:52:05.909Z,100382.34
2022-10-17T22:53:12.786Z,100391.56
2022-10-17T22:54:17.183Z,100389.75
2022-10-17T22:55:21.572Z,100387.19
2022-10-17T22:56:26.202Z,100389.84
2022-10-17T22:57:30.471Z,100392.53
2022-10-17T22:58:36.693Z,100388.88
2022-10-17T22:59:41.311Z,100388.03
2022-10-17T23:00:45.075Z,100380.00
2022-10-17T23:01:48.913Z,100383.63
2022-10-17T23:02:55.943Z,100387.19